Time;durP1;ratioP1;P1;durP2;ratioP2;P2;SDS_P1;SDS_P2;PMS_P1;PMS_P2;Temp;Humidity;BMP_temperature;BMP_pressure;BME280_temperature;BME280_humidity;BME280_pressure;Samples;Min_cycle;Max_cycle;Signal;HPM_P1;HPM_P2
2023/02/05 00:01:35;;;;;;;2.63;2.53;;;6.60;61.10;;;;;;5050362;28;20214;-76
2023/02/05 00:04:02;;;;;;;2.80;2.60;;;6.60;61.70;;;;;;5052508;28;20254;-77
2023/02/05 00:06:29;;;;;;;2.80;2.42;;;6.60;61.80;;;;;;5052741;28;20242;-77
2023/02/05 00:08:56;;;;;;;2.80;2.50;;;6.60;61.30;;;;;;5047784;28;20223;-76
2023/02/05 00:11:23;;;;;;;2.83;2.63;;;6.50;61.60;;;;;;5048893;28;20242;-77
2023/02/05 00:13:50;;;;;;;2.47;2.38;;;6.50;62.00;;;;;;5049366;28;20636;-77
2023/02/05 00:16:21;;;;;;;2.75;2.60;;;6.50;62.20;;;;;;5046982;28;20325;-77
2023/02/05 00:18:48;;;;;;;2.72;2.63;;;6.40;62.90;;;;;;5050555;28;20282;-77
2023/02/05 00:21:16;;;;;;;2.78;2.67;;;6.30;62.90;;;;;;5046949;28;20249;-77
2023/02/05 00:23:43;;;;;;;2.47;2.38;;;6.20;63.20;;;;;;5047010;28;20306;-74
2023/02/05 00:26:12;;;;;;;2.65;2.47;;;6.20;63.00;;;;;;5049247;28;21477;-77
2023/02/05 00:28:39;;;;;;;2.10;2.00;;;6.10;63.20;;;;;;5048796;28;20202;-78
2023/02/05 00:31:09;;;;;;;2.58;2.38;;;6.00;63.60;;;;;;5049243;28;20617;-76
2023/02/05 00:33:37;;;;;;;2.47;2.38;;;5.90;63.60;;;;;;5048733;28;20262;-75
2023/02/05 00:36:05;;;;;;;2.42;2.33;;;5.90;63.50;;;;;;5046940;28;20249;-76
2023/02/05 00:38:32;;;;;;;2.60;2.50;;;5.90;63.40;;;;;;5049756;28;20733;-77
2023/02/05 00:40:59;;;;;;;4.40;2.70;;;5.90;64.10;;;;;;5051809;28;20297;-77
2023/02/05 00:43:26;;;;;;;2.20;2.10;;;6.00;64.20;;;;;;5048364;28;20652;-77
2023/02/05 00:45:53;;;;;;;2.28;2.17;;;6.00;64.20;;;;;;5048706;28;20501;-76
2023/02/05 00:48:20;;;;;;;2.20;2.10;;;5.90;64.20;;;;;;5049548;28;20883;-75
2023/02/05 00:50:50;;;;;;;2.60;2.40;;;5.90;64.40;;;;;;5050876;28;20309;-77
2023/02/05 00:53:17;;;;;;;1.80;1.70;;;5.90;64.00;;;;;;5048102;28;20246;-76
2023/02/05 00:55:44;;;;;;;2.10;2.00;;;5.90;64.60;;;;;;5049345;28;20306;-77
2023/02/05 00:58:12;;;;;;;2.40;2.30;;;5.90;64.10;;;;;;5050848;28;20306;-77
2023/02/05 01:00:39;;;;;;;2.38;2.28;;;5.90;64.00;;;;;;5045571;28;20647;-77
2023/02/05 01:03:06;;;;;;;2.40;2.30;;;5.90;64.50;;;;;;5043215;28;20245;-75
2023/02/05 01:05:34;;;;;;;2.58;2.38;;;5.90;64.80;;;;;;5046975;28;22140;-77
2023/02/05 01:08:02;;;;;;;2.30;2.20;;;6.00;65.10;;;;;;5050920;28;20281;-77
2023/02/05 01:10:29;;;;;;;2.90;2.75;;;5.90;65.60;;;;;;5047862;28;20294;-77
2023/02/05 01:12:57;;;;;;;2.33;2.22;;;6.00;65.30;;;;;;5047504;28;20253;-77
2023/02/05 01:15:24;;;;;;;2.10;2.00;;;6.00;65.30;;;;;;5051974;28;20309;-77
2023/02/05 01:17:50;;;;;;;2.30;2.20;;;6.00;65.40;;;;;;5053924;28;20302;-76
2023/02/05 01:20:18;;;;;;;2.45;2.35;;;5.90;65.60;;;;;;5045074;28;20657;-76
2023/02/05 01:22:44;;;;;;;2.45;2.35;;;5.90;65.70;;;;;;5051355;28;20218;-75
2023/02/05 01:25:13;;;;;;;2.33;2.22;;;5.90;65.90;;;;;;5054503;28;20269;-78
2023/02/05 01:27:40;;;;;;;2.58;2.47;;;5.80;65.90;;;;;;5057102;28;20226;-77
2023/02/05 01:30:08;;;;;;;2.38;2.28;;;5.80;65.90;;;;;;5050971;28;20310;-76
2023/02/05 01:32:35;;;;;;;2.65;2.55;;;5.80;65.50;;;;;;5049974;28;20217;-77
2023/02/05 01:35:02;;;;;;;2.45;2.35;;;5.70;65.20;;;;;;5051681;28;20221;-77
2023/02/05 01:37:29;;;;;;;1.77;1.77;;;5.70;65.50;;;;;;5060801;28;20305;-77
2023/02/05 01:39:56;;;;;;;2.55;2.45;;;5.70;65.90;;;;;;5051956;28;20294;-76
2023/02/05 01:42:27;;;;;;;2.22;2.13;;;5.60;66.00;;;;;;5053692;28;20222;-78
2023/02/05 01:45:42;;;;;;;2.50;2.40;;;5.60;65.90;;;;;;5046611;28;20223;-76
2023/02/05 01:48:10;;;;;;;2.40;2.30;;;5.50;66.10;;;;;;4994087;28;20284;-76
2023/02/05 01:50:40;;;;;;;2.65;2.55;;;5.50;66.10;;;;;;5034834;28;20261;-75
2023/02/05 01:53:11;;;;;;;2.63;2.15;;;5.40;66.10;;;;;;5048008;28;20302;-78
2023/02/05 01:55:43;;;;;;;2.40;2.30;;;5.40;66.00;;;;;;5047928;28;20309;-78
2023/02/05 01:58:13;;;;;;;2.33;2.22;;;5.40;65.80;;;;;;5050274;28;20297;-77
2023/02/05 02:00:40;;;;;;;2.33;2.22;;;5.40;65.90;;;;;;5045410;28;20748;-75
2023/02/05 02:03:07;;;;;;;2.60;2.50;;;5.40;67.10;;;;;;5040447;28;20323;-76
2023/02/05 02:05:34;;;;;;;2.20;2.10;;;5.30;66.30;;;;;;5046340;28;20385;-76
2023/02/05 02:08:01;;;;;;;2.67;2.58;;;5.30;66.30;;;;;;5049780;28;20344;-77
2023/02/05 02:10:28;;;;;;;2.38;2.17;;;5.30;66.50;;;;;;5055258;28;20291;-77
2023/02/05 02:12:56;;;;;;;2.05;1.95;;;5.20;65.90;;;;;;5046033;28;20329;-77
2023/02/05 02:15:27;;;;;;;2.67;2.58;;;5.20;66.10;;;;;;5045889;28;20251;-77
2023/02/05 02:18:24;;;;;;;2.38;2.28;;;5.10;66.40;;;;;;5047455;28;20306;-77
2023/02/05 02:20:50;;;;;;;2.75;2.65;;;5.10;67.00;;;;;;5047203;28;20219;-77
2023/02/05 02:23:27;;;;;;;2.40;2.30;;;5.10;67.00;;;;;;5051051;28;20246;-77
2023/02/05 02:26:11;;;;;;;2.25;2.15;;;5.00;67.10;;;;;;5051952;28;20293;-77
2023/02/05 02:28:45;;;;;;;2.40;2.30;;;5.00;67.20;;;;;;5049255;28;20278;-77
2023/02/05 02:31:16;;;;;;;2.50;2.40;;;5.00;67.40;;;;;;5052698;28;20245;-77
2023/02/05 02:33:48;;;;;;;2.45;2.35;;;5.00;67.70;;;;;;5055824;28;20266;-77
2023/02/05 02:36:21;;;;;;;2.33;2.22;;;4.90;68.10;;;;;;5046889;28;20297;-76
2023/02/05 02:38:53;;;;;;;2.50;2.40;;;4.90;67.90;;;;;;5052363;28;20222;-76
2023/02/05 02:41:26;;;;;;;2.50;2.40;;;4.80;67.90;;;;;;5051786;28;20253;-77
2023/02/05 02:43:57;;;;;;;2.70;2.60;;;4.90;68.50;;;;;;5054104;28;20254;-77
2023/02/05 02:46:29;;;;;;;3.05;2.85;;;4.80;68.30;;;;;;5051425;28;20218;-77
2023/02/05 02:49:01;;;;;;;2.75;2.65;;;4.80;69.10;;;;;;5052570;28;20214;-76
2023/02/05 02:51:29;;;;;;;2.78;2.67;;;4.80;69.30;;;;;;5051012;28;20249;-76
2023/02/05 02:53:59;;;;;;;2.38;2.28;;;4.80;69.00;;;;;;5049623;28;20219;-76
2023/02/05 02:56:29;;;;;;;2.50;2.40;;;4.70;69.00;;;;;;5051295;28;21315;-77
2023/02/05 02:59:08;;;;;;;3.00;2.80;;;4.70;69.30;;;;;;5052139;28;20246;-77
2023/02/05 03:01:37;;;;;;;2.70;2.60;;;4.70;69.80;;;;;;5043559;28;20310;-77
2023/02/05 03:04:09;;;;;;;2.40;2.30;;;4.70;70.20;;;;;;5048380;28;20313;-76
2023/02/05 03:06:40;;;;;;;2.70;2.60;;;4.70;70.40;;;;;;5048161;28;20298;-77
2023/02/05 03:09:11;;;;;;;2.58;2.47;;;4.70;70.60;;;;;;5049932;28;20273;-77
2023/02/05 03:11:39;;;;;;;2.45;2.35;;;4.70;70.60;;;;;;5048318;28;20301;-77
2023/02/05 03:14:07;;;;;;;2.55;2.45;;;4.70;70.40;;;;;;5052971;28;20253;-77
2023/02/05 03:16:34;;;;;;;2.78;2.67;;;4.70;70.50;;;;;;5048889;28;20247;-77
2023/02/05 03:19:04;;;;;;;4.60;2.92;;;4.70;69.70;;;;;;5053507;28;20322;-76
2023/02/05 03:21:37;;;;;;;3.00;2.80;;;4.70;69.30;;;;;;5046480;28;20222;-77
2023/02/05 03:24:05;;;;;;;3.10;2.90;;;4.70;69.70;;;;;;5049458;28;20306;-77
2023/02/05 03:26:34;;;;;;;2.88;2.70;;;4.60;70.10;;;;;;5050086;28;20721;-77
2023/02/05 03:29:04;;;;;;;3.00;2.80;;;4.60;70.70;;;;;;5052297;28;20187;-77
2023/02/05 03:31:42;;;;;;;3.75;2.83;;;4.60;70.80;;;;;;5055575;28;20243;-77
2023/02/05 03:34:20;;;;;;;3.20;3.00;;;4.50;70.90;;;;;;5046185;28;20310;-76
2023/02/05 03:36:58;;;;;;;3.05;2.85;;;4.50;71.20;;;;;;5051396;28;20214;-76
2023/02/05 03:39:33;;;;;;;2.97;2.78;;;4.40;71.40;;;;;;5052613;28;20245;-78
2023/02/05 03:42:10;;;;;;;2.85;2.65;;;4.30;71.30;;;;;;5051614;28;20244;-78
2023/02/05 03:45:07;;;;;;;3.80;3.50;;;4.30;71.80;;;;;;5051870;28;20314;-76
2023/02/05 03:47:45;;;;;;;5.18;4.68;;;4.30;72.50;;;;;;5028321;28;20617;-76
2023/02/05 03:50:21;;;;;;;5.80;5.20;;;4.30;73.40;;;;;;5056217;28;20222;-78
2023/02/05 03:52:54;;;;;;;6.82;5.97;;;4.20;75.00;;;;;;5051580;28;20225;-77
2023/02/05 03:55:26;;;;;;;6.53;5.93;;;4.20;76.80;;;;;;5056430;28;20647;-77
2023/02/05 03:57:59;;;;;;;7.90;6.38;;;4.20;77.60;;;;;;5052025;28;20302;-76
2023/02/05 04:00:27;;;;;;;6.47;5.82;;;4.20;77.10;;;;;;5052131;28;20289;-77
2023/02/05 04:02:55;;;;;;;7.65;6.43;;;4.10;78.10;;;;;;5059100;28;20278;-76
2023/02/05 04:05:23;;;;;;;7.88;6.80;;;4.00;79.90;;;;;;5050918;28;20297;-77
2023/02/05 04:07:50;;;;;;;10.40;8.45;;;4.00;80.70;;;;;;5050968;28;20689;-77
2023/02/05 04:10:17;;;;;;;9.23;8.23;;;4.00;81.00;;;;;;5055218;28;20297;-77
2023/02/05 04:12:44;;;;;;;8.93;7.63;;;3.90;81.60;;;;;;5056194;28;20278;-77
2023/02/05 04:15:11;;;;;;;8.70;7.20;;;3.90;82.10;;;;;;5050478;28;20251;-77
2023/02/05 04:17:39;;;;;;;9.25;7.38;;;3.90;84.30;;;;;;5051553;28;20326;-76
2023/02/05 04:20:09;;;;;;;7.95;7.15;;;4.00;83.80;;;;;;5049577;28;20298;-77
2023/02/05 04:22:36;;;;;;;8.60;7.70;;;4.00;84.20;;;;;;5053953;28;20320;-77
2023/02/05 04:25:03;;;;;;;9.05;7.78;;;4.00;84.60;;;;;;5056680;28;20302;-77
2023/02/05 04:27:29;;;;;;;9.13;8.23;;;3.90;85.70;;;;;;5052238;28;20282;-77
2023/02/05 04:29:56;;;;;;;8.43;7.60;;;3.80;87.50;;;;;;5048017;28;20238;-77
2023/02/05 04:32:23;;;;;;;8.35;7.18;;;3.80;87.10;;;;;;5054335;28;20245;-77
2023/02/05 04:34:50;;;;;;;9.85;8.45;;;3.80;87.30;;;;;;5056184;28;20302;-77
2023/02/05 04:37:19;;;;;;;9.93;8.20;;;3.80;87.50;;;;;;5055424;28;20294;-77
2023/02/05 04:39:47;;;;;;;8.75;7.57;;;3.80;88.80;;;;;;5047950;28;20251;-77
2023/02/05 04:42:14;;;;;;;9.70;8.30;;;3.80;90.00;;;;;;5054298;28;20232;-77
2023/02/05 04:44:41;;;;;;;9.43;7.93;;;3.80;89.60;;;;;;5049507;28;20314;-77
2023/02/05 04:47:08;;;;;;;9.27;8.02;;;3.80;90.10;;;;;;5053376;28;20286;-76
2023/02/05 04:49:35;;;;;;;8.07;7.28;;;3.80;90.50;;;;;;5049981;28;20736;-77
2023/02/05 04:52:02;;;;;;;8.35;7.55;;;3.80;90.30;;;;;;5055282;28;20222;-77
2023/02/05 04:54:30;;;;;;;8.05;6.53;;;3.80;90.30;;;;;;5049212;28;20678;-77
2023/02/05 04:56:57;;;;;;;7.13;6.43;;;3.80;90.40;;;;;;5049936;28;20231;-77
2023/02/05 04:59:25;;;;;;;7.95;6.63;;;3.80;90.40;;;;;;5054871;28;20380;-77
2023/02/05 05:01:52;;;;;;;6.43;5.82;;;3.80;89.40;;;;;;5053418;28;20203;-77
2023/02/05 05:04:18;;;;;;;6.53;5.57;;;3.70;89.00;;;;;;5052034;28;20302;-77
2023/02/05 05:06:45;;;;;;;6.60;5.68;;;3.70;89.80;;;;;;5047428;28;20234;-76
2023/02/05 05:09:12;;;;;;;5.75;5.10;;;3.70;89.70;;;;;;5049211;28;20191;-77
2023/02/05 05:11:41;;;;;;;6.15;5.60;;;3.70;89.20;;;;;;5051471;28;20202;-77
2023/02/05 05:14:07;;;;;;;5.40;5.00;;;3.70;88.40;;;;;;5052203;28;20261;-77
2023/02/05 05:16:34;;;;;;;5.60;5.00;;;3.70;87.80;;;;;;5044974;28;20246;-77
2023/02/05 05:19:01;;;;;;;7.35;5.80;;;3.70;87.80;;;;;;5050371;28;20309;-77
2023/02/05 05:21:28;;;;;;;6.03;5.45;;;3.70;87.90;;;;;;5050773;28;20796;-77
2023/02/05 05:23:55;;;;;;;5.45;4.93;;;3.70;88.40;;;;;;5056946;28;20804;-77
2023/02/05 05:26:22;;;;;;;5.13;4.72;;;3.60;88.30;;;;;;5046742;28;20298;-77
2023/02/05 05:28:54;;;;;;;5.30;4.80;;;3.60;88.20;;;;;;5042094;28;20649;-77
2023/02/05 05:31:21;;;;;;;5.60;5.03;;;3.60;89.30;;;;;;5050408;28;20706;-77
2023/02/05 05:33:48;;;;;;;5.45;4.95;;;3.60;90.10;;;;;;5054835;28;20307;-77
2023/02/05 05:36:16;;;;;;;7.20;6.50;;;3.50;90.70;;;;;;5052958;28;20716;-77
2023/02/05 05:38:43;;;;;;;7.03;6.32;;;3.50;91.90;;;;;;5050153;28;20306;-76
2023/02/05 05:44:03;;;;;;;6.68;5.97;;;3.50;92.80;;;;;;5054002;28;20252;-77
2023/02/05 05:46:29;;;;;;;8.02;7.18;;;3.50;93.20;;;;;;5047412;28;20306;-77
2023/02/05 05:48:59;;;;;;;8.23;7.13;;;3.50;93.90;;;;;;5050331;28;20289;-77
2023/02/05 05:51:27;;;;;;;9.77;8.00;;;3.50;94.20;;;;;;5052470;28;20787;-76
2023/02/05 05:53:55;;;;;;;9.32;7.80;;;3.50;95.70;;;;;;5049162;28;20303;-77
2023/02/05 05:56:22;;;;;;;9.48;8.02;;;3.50;95.50;;;;;;5049723;28;20661;-77
2023/02/05 05:58:50;;;;;;;10.52;7.85;;;3.50;95.70;;;;;;5053103;28;20310;-77
2023/02/05 06:01:21;;;;;;;8.88;7.57;;;3.50;95.70;;;;;;5052276;28;20258;-77
2023/02/05 06:03:48;;;;;;;9.40;7.28;;;3.50;96.40;;;;;;5046833;28;20348;-76
2023/02/05 06:06:15;;;;;;;8.20;7.13;;;3.50;96.60;;;;;;5056846;28;20294;-77
2023/02/05 06:08:42;;;;;;;11.40;9.02;;;3.50;97.00;;;;;;5050955;28;20237;-77
2023/02/05 06:11:09;;;;;;;8.40;7.60;;;3.50;96.90;;;;;;5047538;28;20755;-76
2023/02/05 06:13:36;;;;;;;10.35;7.78;;;3.50;98.10;;;;;;5048462;28;20254;-77
2023/02/05 06:16:03;;;;;;;10.05;8.07;;;3.50;99.20;;;;;;5045593;28;20223;-77
2023/02/05 06:18:31;;;;;;;8.38;7.35;;;3.50;99.20;;;;;;5050541;28;20305;-77
2023/02/05 06:20:58;;;;;;;10.18;8.20;;;3.50;99.00;;;;;;5053679;28;20764;-77
2023/02/05 06:23:25;;;;;;;9.63;8.05;;;3.50;99.40;;;;;;5050188;28;20314;-77
2023/02/05 06:25:52;;;;;;;9.57;7.97;;;3.50;99.50;;;;;;5052851;28;20253;-77
2023/02/05 06:28:19;;;;;;;9.07;7.50;;;3.50;99.60;;;;;;5051677;28;20684;-77
2023/02/05 06:30:46;;;;;;;9.07;6.60;;;3.40;99.70;;;;;;5054142;28;20225;-77
2023/02/05 06:33:13;;;;;;;10.55;7.70;;;3.30;99.90;;;;;;5055271;28;20755;-77
2023/02/05 06:35:41;;;;;;;9.38;8.43;;;3.30;99.90;;;;;;5047810;28;20242;-77
2023/02/05 06:38:08;;;;;;;10.10;8.60;;;3.30;99.90;;;;;;5049835;28;20314;-77
2023/02/05 06:40:35;;;;;;;10.93;8.38;;;3.30;99.90;;;;;;5057183;28;20257;-77
2023/02/05 06:43:02;;;;;;;9.82;7.90;;;3.30;99.90;;;;;;5049488;28;20314;-76
2023/02/05 06:45:30;;;;;;;9.57;8.10;;;3.30;99.90;;;;;;5047307;28;20223;-77
2023/02/05 06:47:57;;;;;;;9.07;7.60;;;3.20;99.90;;;;;;5049101;28;20626;-77
2023/02/05 06:50:25;;;;;;;8.57;7.78;;;3.20;99.90;;;;;;5050510;28;20211;-77
2023/02/05 06:52:53;;;;;;;7.90;7.10;;;3.20;99.90;;;;;;5046382;28;20235;-77
2023/02/05 06:55:20;;;;;;;8.00;7.20;;;3.20;99.90;;;;;;5054266;28;20912;-75
2023/02/05 06:57:47;;;;;;;12.30;7.97;;;3.30;99.90;;;;;;5053813;28;20226;-77
2023/02/05 07:00:15;;;;;;;8.18;6.82;;;3.30;99.90;;;;;;5052016;28;20250;-77
2023/02/05 07:02:42;;;;;;;7.80;6.97;;;3.30;99.90;;;;;;5049647;28;20369;-77
2023/02/05 07:05:09;;;;;;;7.97;6.97;;;3.30;99.90;;;;;;5051484;28;20305;-77
2023/02/05 07:07:36;;;;;;;8.52;7.70;;;3.30;99.90;;;;;;5059173;28;20917;-77
2023/02/05 07:10:05;;;;;;;7.90;7.10;;;3.30;99.90;;;;;;5045231;28;20307;-74
2023/02/05 07:12:32;;;;;;;8.15;7.25;;;3.40;99.90;;;;;;5042152;28;20290;-77
2023/02/05 07:14:59;;;;;;;7.93;7.13;;;3.40;99.90;;;;;;5046575;28;20305;-77
2023/02/05 07:17:26;;;;;;;8.77;7.47;;;3.40;99.90;;;;;;5052622;28;20282;-77
2023/02/05 07:19:53;;;;;;;8.50;7.47;;;3.30;99.90;;;;;;5054439;28;20305;-77
2023/02/05 07:22:20;;;;;;;7.90;6.82;;;3.40;99.90;;;;;;5052534;28;20661;-76
2023/02/05 07:24:47;;;;;;;8.73;7.47;;;3.40;99.90;;;;;;5050779;28;20261;-77
2023/02/05 07:27:15;;;;;;;8.43;7.55;;;3.40;99.90;;;;;;5058431;28;20277;-77
2023/02/05 07:29:42;;;;;;;8.90;7.07;;;3.40;99.90;;;;;;5053390;28;20226;-77
2023/02/05 07:32:09;;;;;;;10.40;8.80;;;3.40;99.90;;;;;;5046231;28;20282;-77
2023/02/05 07:34:36;;;;;;;11.45;8.95;;;3.40;99.90;;;;;;5053374;28;20226;-77
2023/02/05 07:37:02;;;;;;;11.15;9.43;;;3.40;99.90;;;;;;5044565;28;22297;-76
2023/02/05 07:39:32;;;;;;;11.20;9.20;;;3.60;99.90;;;;;;5051479;28;20305;-76
2023/02/05 07:41:59;;;;;;;11.50;10.02;;;4.00;99.90;;;;;;5061878;28;20203;-78
2023/02/05 07:44:27;;;;;;;11.80;9.13;;;4.70;99.90;;;;;;5052359;28;20250;-77
2023/02/05 07:46:54;;;;;;;11.18;9.40;;;5.50;99.90;;;;;;5058740;28;20218;-77
2023/02/05 07:49:21;;;;;;;15.35;12.93;;;6.30;99.90;;;;;;5054984;28;20222;-77
2023/02/05 07:51:48;;;;;;;14.25;11.07;;;7.00;99.90;;;;;;5059415;28;20194;-77
2023/02/05 07:54:15;;;;;;;10.52;8.73;;;7.50;99.50;;;;;;5053689;28;20246;-76
2023/02/05 07:56:42;;;;;;;12.68;10.00;;;8.00;99.20;;;;;;5050970;28;20227;-76
2023/02/05 07:59:10;;;;;;;11.60;9.48;;;8.60;98.50;;;;;;5057373;28;20954;-76
2023/02/05 08:01:38;;;;;;;12.07;9.32;;;8.80;98.20;;;;;;5057734;28;21103;-76
2023/02/05 08:04:05;;;;;;;10.68;8.77;;;9.20;98.00;;;;;;5057497;28;20269;-78
2023/02/05 08:06:33;;;;;;;11.27;8.77;;;9.30;97.30;;;;;;5057849;28;20261;-77
2023/02/05 08:09:00;;;;;;;13.35;8.75;;;9.30;97.40;;;;;;5057447;28;20222;-77
2023/02/05 08:11:27;;;;;;;11.15;8.85;;;9.50;96.90;;;;;;5055942;28;20262;-76
2023/02/05 08:13:53;;;;;;;13.38;9.23;;;9.40;97.70;;;;;;5055715;28;20251;-77
2023/02/05 08:16:20;;;;;;;11.85;9.38;;;9.30;97.70;;;;;;5050217;28;20709;-76
2023/02/05 08:18:50;;;;;;;15.10;8.70;;;9.50;97.80;;;;;;5045733;28;20282;-77
2023/02/05 08:21:17;;;;;;;11.48;7.90;;;9.60;97.20;;;;;;5050410;28;20264;-75
2023/02/05 08:23:44;;;;;;;9.95;8.43;;;10.00;96.90;;;;;;5049880;28;20809;-77
2023/02/05 08:26:13;;;;;;;9.52;7.53;;;10.40;95.80;;;;;;5052435;28;20250;-76
2023/02/05 08:28:41;;;;;;;12.63;8.48;;;11.00;95.30;;;;;;5051873;28;20249;-78
2023/02/05 08:31:12;;;;;;;9.43;7.53;;;11.50;94.40;;;;;;5054052;28;20226;-76
2023/02/05 08:33:39;;;;;;;10.00;7.90;;;11.80;94.00;;;;;;5047312;28;20258;-76
2023/02/05 08:36:09;;;;;;;11.18;8.38;;;11.90;93.50;;;;;;5053223;28;20243;-77
2023/02/05 08:38:36;;;;;;;10.43;8.10;;;11.80;93.30;;;;;;5048694;28;20226;-77
2023/02/05 08:41:11;;;;;;;9.18;8.05;;;11.90;93.20;;;;;;5052454;28;20284;-78
2023/02/05 08:43:41;;;;;;;9.63;7.63;;;12.10;92.60;;;;;;5049744;28;20250;-76
2023/02/05 08:46:10;;;;;;;7.72;6.90;;;12.40;92.10;;;;;;5059133;28;20662;-75
2023/02/05 08:48:37;;;;;;;10.57;7.35;;;12.40;91.50;;;;;;5054031;28;20226;-78
2023/02/05 08:51:05;;;;;;;8.15;6.57;;;12.80;90.70;;;;;;5058669;28;20250;-77
2023/02/05 08:53:33;;;;;;;7.20;6.50;;;12.80;90.40;;;;;;5054430;28;20317;-77
2023/02/05 08:56:02;;;;;;;12.27;6.50;;;12.60;90.70;;;;;;5058786;28;20594;-77
2023/02/05 08:58:29;;;;;;;7.80;6.95;;;12.50;90.90;;;;;;5051561;28;20198;-77
2023/02/05 09:01:01;;;;;;;8.82;6.50;;;12.70;91.20;;;;;;5058321;28;20313;-77
2023/02/05 09:03:28;;;;;;;8.65;7.10;;;12.90;90.80;;;;;;5054063;28;20301;-77
2023/02/05 09:05:55;;;;;;;7.95;6.50;;;13.20;90.20;;;;;;5054803;28;20218;-78
2023/02/05 09:08:22;;;;;;;8.32;6.47;;;13.30;88.70;;;;;;5053932;28;20218;-75
2023/02/05 09:10:50;;;;;;;8.63;7.07;;;13.30;88.20;;;;;;5051390;28;20282;-77
2023/02/05 09:13:17;;;;;;;9.05;6.75;;;13.30;85.90;;;;;;5055564;28;20866;-77
2023/02/05 09:15:45;;;;;;;12.57;6.68;;;13.00;86.20;;;;;;5052181;28;20246;-77
2023/02/05 09:18:12;;;;;;;7.82;6.68;;;13.20;87.30;;;;;;5052419;28;20226;-78
2023/02/05 09:20:41;;;;;;;9.95;7.10;;;13.40;87.30;;;;;;5046965;28;20243;-78
2023/02/05 09:23:09;;;;;;;9.73;7.30;;;13.30;86.60;;;;;;5056880;28;20310;-78
2023/02/05 09:25:37;;;;;;;9.05;6.57;;;13.50;87.20;;;;;;5051343;28;20223;-76
2023/02/05 09:28:08;;;;;;;10.60;7.78;;;13.50;87.20;;;;;;5060094;28;20230;-78
2023/02/05 09:30:35;;;;;;;10.20;7.68;;;13.60;87.10;;;;;;5056143;28;20219;-77
2023/02/05 09:33:02;;;;;;;9.38;6.70;;;13.70;87.70;;;;;;5058389;28;20222;-78
2023/02/05 09:35:29;;;;;;;10.40;7.40;;;13.90;86.90;;;;;;5053767;28;20230;-77
2023/02/05 09:37:56;;;;;;;9.75;7.70;;;13.90;86.20;;;;;;5054958;28;20257;-78
2023/02/05 09:40:27;;;;;;;11.30;7.40;;;14.70;85.30;;;;;;5050012;28;20314;-78
2023/02/05 09:43:03;;;;;;;11.00;8.15;;;15.40;81.70;;;;;;5055935;28;20203;-75
2023/02/05 09:45:51;;;;;;;9.48;7.72;;;15.40;81.20;;;;;;5054604;28;20643;-77
2023/02/05 09:48:48;;;;;;;9.88;7.30;;;15.20;81.10;;;;;;5050818;28;20230;-77
2023/02/05 09:51:17;;;;;;;10.38;7.95;;;14.60;82.20;;;;;;5050488;28;20226;-78
2023/02/05 09:53:48;;;;;;;13.10;8.57;;;13.60;83.80;;;;;;5050863;28;20218;-77
2023/02/05 09:56:17;;;;;;;9.93;7.95;;;13.60;86.30;;;;;;5049614;28;20253;-77
2023/02/05 09:58:47;;;;;;;8.38;7.22;;;13.90;85.70;;;;;;5051861;28;20578;-76
2023/02/05 10:01:21;;;;;;;10.00;7.43;;;14.00;85.40;;;;;;5049151;28;20345;-77
2023/02/05 10:03:53;;;;;;;10.18;7.65;;;14.40;85.30;;;;;;5058432;28;20250;-78
2023/02/05 10:06:55;;;;;;;13.07;7.85;;;14.70;84.00;;;;;;5055924;28;20854;-77
2023/02/05 10:09:53;;;;;;;12.80;8.30;;;14.70;84.50;;;;;;5022280;28;20289;-78
2023/02/05 10:12:35;;;;;;;8.73;6.90;;;14.90;83.50;;;;;;5029398;28;20199;-78
2023/02/05 10:15:17;;;;;;;9.75;7.82;;;14.40;83.40;;;;;;5053444;28;20264;-76
2023/02/05 10:17:58;;;;;;;10.88;7.80;;;14.20;84.90;;;;;;5051076;28;20202;-76
2023/02/05 10:20:40;;;;;;;10.05;7.97;;;14.10;85.20;;;;;;5049303;28;20760;-77
2023/02/05 10:23:14;;;;;;;9.88;7.47;;;14.00;85.50;;;;;;5050384;28;20262;-77
2023/02/05 10:25:53;;;;;;;11.30;7.85;;;13.70;85.60;;;;;;5049294;28;20218;-76
2023/02/05 10:28:36;;;;;;;11.27;8.18;;;13.10;87.90;;;;;;5052213;28;20229;-77
2023/02/05 10:31:10;;;;;;;11.70;8.88;;;12.90;89.80;;;;;;5051774;28;20253;-77
2023/02/05 10:33:47;;;;;;;19.38;9.38;;;13.20;88.80;;;;;;5059831;28;20934;-77
2023/02/05 10:36:15;;;;;;;13.20;8.77;;;13.20;89.70;;;;;;5055183;28;20596;-78
2023/02/05 10:38:45;;;;;;;9.95;8.13;;;13.50;88.80;;;;;;5057837;28;20230;-75
2023/02/05 10:41:19;;;;;;;13.48;8.82;;;13.70;88.00;;;;;;5050789;28;20325;-78
2023/02/05 10:43:52;;;;;;;9.32;7.65;;;13.80;88.50;;;;;;5044108;28;20717;-77
2023/02/05 10:46:19;;;;;;;14.52;7.88;;;14.10;87.80;;;;;;5043386;28;20592;-77
2023/02/05 10:48:52;;;;;;;12.35;8.38;;;14.10;87.20;;;;;;5051568;28;20230;-77
2023/02/05 10:51:27;;;;;;;12.55;8.25;;;14.20;87.50;;;;;;5054164;28;20709;-76
2023/02/05 10:53:54;;;;;;;11.77;7.90;;;14.10;87.00;;;;;;5053164;28;20250;-77
2023/02/05 10:56:21;;;;;;;9.98;7.80;;;14.20;86.70;;;;;;5052811;28;20250;-77
2023/02/05 10:58:53;;;;;;;12.93;8.75;;;14.30;87.30;;;;;;5060454;28;20199;-77
2023/02/05 11:01:22;;;;;;;15.50;9.93;;;14.30;87.00;;;;;;5060880;28;20289;-77
2023/02/05 11:03:55;;;;;;;13.45;8.25;;;14.20;87.20;;;;;;5056850;28;20249;-77
2023/02/05 11:06:25;;;;;;;11.52;8.48;;;13.50;89.20;;;;;;5057295;28;20245;-76
2023/02/05 11:08:52;;;;;;;11.30;8.07;;;12.80;90.00;;;;;;5058271;28;20198;-76
2023/02/05 11:11:22;;;;;;;12.20;8.15;;;12.80;90.80;;;;;;5050592;28;20245;-75
2023/02/05 11:13:54;;;;;;;11.40;8.88;;;12.80;90.70;;;;;;5052441;28;20293;-75
2023/02/05 11:16:23;;;;;;;13.60;8.07;;;12.70;91.00;;;;;;5044421;28;20709;-75
2023/02/05 11:18:59;;;;;;;14.70;8.40;;;12.60;91.30;;;;;;5044749;28;20294;-75
2023/02/05 11:21:46;;;;;;;14.57;8.38;;;12.60;91.00;;;;;;5050128;28;20301;-75
2023/02/05 11:24:24;;;;;;;12.18;7.90;;;12.50;90.80;;;;;;5054755;28;20315;-76
2023/02/05 11:27:10;;;;;;;10.85;7.78;;;12.30;91.30;;;;;;5052708;28;20226;-76
2023/02/05 11:29:37;;;;;;;10.00;7.38;;;12.20;91.40;;;;;;5060586;28;20242;-76
2023/02/05 11:32:04;;;;;;;15.07;8.85;;;12.30;92.20;;;;;;5050321;28;20234;-76
2023/02/05 11:34:32;;;;;;;10.82;8.32;;;12.30;91.80;;;;;;5053978;28;20304;-77
2023/02/05 11:37:10;;;;;;;10.93;7.97;;;12.20;91.90;;;;;;5058734;28;20688;-77
2023/02/05 11:39:39;;;;;;;13.40;8.02;;;12.00;91.70;;;;;;5054088;28;20288;-77
2023/02/05 11:42:16;;;;;;;11.77;8.25;;;12.00;91.90;;;;;;5051306;28;20277;-77
2023/02/05 11:44:49;;;;;;;10.65;7.28;;;11.80;92.30;;;;;;5056229;28;20246;-77
2023/02/05 11:47:25;;;;;;;11.60;8.20;;;11.70;92.30;;;;;;5047952;28;20281;-77
2023/02/05 11:49:54;;;;;;;9.10;6.85;;;11.90;92.40;;;;;;5054589;28;20309;-77
2023/02/05 11:52:27;;;;;;;12.38;8.38;;;12.40;92.20;;;;;;5056975;28;20198;-77
2023/02/05 11:54:54;;;;;;;10.50;8.15;;;12.20;91.90;;;;;;5057418;28;20303;-77
2023/02/05 11:57:32;;;;;;;11.38;7.90;;;11.90;92.20;;;;;;5053325;28;20700;-77
2023/02/05 12:00:01;;;;;;;11.48;8.43;;;12.00;92.60;;;;;;5058937;28;20253;-77
2023/02/05 12:02:33;;;;;;;11.68;7.93;;;11.70;92.60;;;;;;5051534;28;20245;-77
2023/02/05 12:05:09;;;;;;;13.75;8.90;;;11.60;93.00;;;;;;5054411;28;20297;-76
2023/02/05 12:07:41;;;;;;;14.02;9.20;;;11.70;93.20;;;;;;5057667;28;20222;-78
2023/02/05 12:10:15;;;;;;;12.90;8.52;;;11.60;93.60;;;;;;5058467;28;20242;-75
2023/02/05 12:12:51;;;;;;;12.50;8.18;;;11.40;93.50;;;;;;5057194;28;20842;-77
2023/02/05 12:15:24;;;;;;;10.05;7.93;;;11.40;93.80;;;;;;5051321;28;20301;-77
2023/02/05 12:17:58;;;;;;;11.43;7.13;;;11.50;93.50;;;;;;5056559;28;20226;-78
2023/02/05 12:20:32;;;;;;;10.20;7.78;;;12.00;93.10;;;;;;5056778;28;20631;-77
2023/02/05 12:23:24;;;;;;;10.75;6.78;;;12.10;92.40;;;;;;5051264;28;20297;-77
2023/02/05 12:26:05;;;;;;;9.80;7.05;;;12.40;92.60;;;;;;5055051;28;20348;-77
2023/02/05 12:28:40;;;;;;;11.25;6.60;;;12.30;92.60;;;;;;5054748;28;20277;-77
2023/02/05 12:31:21;;;;;;;12.23;6.68;;;11.80;92.40;;;;;;5053453;28;20590;-77
2023/02/05 12:34:14;;;;;;;9.90;6.30;;;11.60;93.20;;;;;;5060202;28;20313;-74
2023/02/05 12:37:18;;;;;;;11.75;6.70;;;11.50;93.30;;;;;;5048823;28;20249;-77
2023/02/05 12:39:48;;;;;;;11.55;5.30;;;11.40;93.40;;;;;;5048171;28;20713;-77
2023/02/05 12:42:29;;;;;;;8.80;6.60;;;11.50;93.00;;;;;;5053547;28;20285;-77
2023/02/05 12:45:18;;;;;;;8.68;5.57;;;11.40;92.90;;;;;;5055925;28;20273;-77
2023/02/05 12:48:00;;;;;;;12.73;7.13;;;11.10;93.00;;;;;;5052581;28;20294;-77
2023/02/05 12:50:44;;;;;;;7.53;5.78;;;11.10;93.20;;;;;;5051875;28;20329;-77
2023/02/05 12:53:38;;;;;;;9.20;5.65;;;10.90;92.90;;;;;;5052698;28;20243;-75
2023/02/05 12:56:28;;;;;;;9.48;5.28;;;11.00;92.70;;;;;;5045929;28;20643;-77
2023/02/05 12:58:59;;;;;;;9.38;5.32;;;11.10;93.00;;;;;;5059165;28;20226;-77
2023/02/05 13:01:35;;;;;;;9.25;5.95;;;10.80;92.20;;;;;;5055099;28;20250;-75
2023/02/05 13:04:02;;;;;;;8.60;5.53;;;10.50;93.20;;;;;;5050705;28;20254;-77
2023/02/05 13:06:33;;;;;;;6.05;5.07;;;10.40;93.40;;;;;;5054945;28;20253;-75
2023/02/05 13:09:06;;;;;;;9.13;5.22;;;10.50;93.50;;;;;;5053557;28;20230;-77
2023/02/05 13:11:39;;;;;;;7.55;5.25;;;10.60;93.80;;;;;;5051250;28;20656;-77